Main page
METAR-TAF:

METAR-TAF

Airports :

Sakon Nakhon Airport

Sakon Nakhon, Thailand

latitude: 17-11-42N, longitude: 104-07-08E, elevation: 161 m

Current weather observation

The report was made 16 minutes ago, at 05:00 UTC
Wind 12 kt from the Northeast, varying between North and East/Northeast
Temperature 23°C
Humidity 33%
Pressure 1022 hPa
Visibility: 9000 m

METAR: VTUI 060500Z 04012KT 360V070 9000 NSC 23/06 Q1022 NOSIG

Time: 12:16 (05:16 UTC)

Forecast

The report was made 6 hours and 16 minutes ago, at 23:00 UTC
Forecast valid from 06 at 00 UTC to 06 at 24 UTC
Wind 2 kt from variable directions
Visibility: 3000 m
Few clouds at a height of 3000 ft
mist
Becoming
from 06 at 02 UTC to 06 at 04 UTC
Wind 10 kt from the East/Northeast
Visibility: 8000 m

TAF: VTUI 052300Z 0600/0624 VRB02KT 3000 BR FEW030 BECMG 0602/0604 06010KT 8000 NSW

Weather observations and forecasts of more than 4000 airports (METAR and TAF reports).

The available stations are represented by yellow and red dots on the map.

Hover mouse over dot to see the name of the station.

Then click to see weather observations and forecasts.

To change the map : click on the green buttons with a black cross to zoom in, on the green button with a dash to zoom out, or on the green arrows for adjacent maps.


METAR-TAF: